Terminal Aerodrome Forecast
Issued by NWS

Home | Current Version | Previous Version | Text Only | Print | Product List | Glossary On
Versions: 1 2 3 4 5 6 7 8 9 10 11 12 13 14 15 16 17
000
FTUS46 KSEW 250524
TAFHQM
TAF
KHQM 250524Z 2506/2606 04006KT P6SM SCT040
     FM251600 VRB04KT P6SM BKN040
     FM252100 23009KT P6SM SCT015 OVC030
     FM260300 21007KT P6SM -RA BKN015 OVC025=

USA.gov is the U.S. government's official web portal to all federal, state and local government web resources and services.